x

South Hatteras - 225 South Of Cape Hatteras (41002) Wave Buoy

4:50 - Sun 19th Apr 2015 All times are EDT. -4 hours from GMT.

  • Sig Wave height 3.9ft
  • Swell Direction
  • Peak Period 14s
  • Average Period 7s
  • Wind
    11mph, 13mph gusts
  • Sea Temp 75°f
  • Ar Temp 72°f
  • Sea Pressure 1014.9mb
  • South Hatteras - 225 South Of Cape Hatteras
  • South Hatteras - 225 South Of Cape Hatteras

More Historic Weather Station data

Upgrade to MSW Pro to gain access to the past 30 days of data for over 8000 Wavebouys and Weather Stations around the globe.

Join Pro

Comparision Forecast

View Surf forecast
   
Dom 04/19 4:50 4ft 14s 7s 11 13 mph 1014.9mb 75f 72f
3:50 5ft 14s 8s 7 9 mph 1014.6mb 75f 72f
2:50 4.5ft 14s 7s 7 9 mph 1014.7mb 75f 72f
1:50 4.5ft 14s 7s 4 7 mph 1014.7mb 75f 72f
12:50 5ft 14s 8s 4
mph
1015.2mb 75f 72f
Sáb 04/18 11:50 5ft 14s 7s 2 4 mph 1015.3mb 75f 72f
10:50 4.5ft 12s 7s 4
mph
1015.3mb 75f 72f
9:50 5ft 9s 7s 4 7 mph 1015.2mb 75f 72f
8:50 5ft 9s 7s 7
mph
1014.6mb 75f 72f
7:50 4.5ft 11s 7s 4
mph
1014.2mb 75f 72f
6:50 5ft 11s 7s 4 7 mph 1013.9mb 75f 72f
5:50 5ft 11s 7s 4
mph
1013.9mb 75f 72f
4:50 5ft 11s 7s 4 7 mph 1013.8mb 75f 72f
3:50 5ft 11s 7s 7
mph
1013.7mb 74f 71f
2:50 5.5ft 9s 7s 9 11 mph 1014.4mb 74f 70f
1:50 5.5ft 12s 7s 11
mph
1015mb 74f 70f
12:50 5.5ft 11s 7s 11 18 mph 1014.9mb 74f 71f
11:50 5ft 11s 7s 9 11 mph 1014.8mb 74f 73f
10:50 5.5ft 8s 7s 11 13 mph 1014.8mb 74f 73f
9:50 5.5ft 10s 7s 9 11 mph 1014.7mb 74f 73f
8:50 5.5ft 11s 7s 7 9 mph 1014.3mb 74f 73f
7:50 5.5ft 8s 7s 7 9 mph 1014.6mb 73f 73f
6:50 5.5ft 8s 7s 7 9 mph 1014.2mb 73f 72f
5:50 5.5ft 9s 7s 9 11 mph 1014.1mb 73f 73f
4:50 5ft 8s 6s 9 11 mph 1013.9mb 73f 72f
3:50 5ft 9s 7s 7 9 mph 1014.3mb 73f 72f
2:50 5.5ft 10s 7s 7 9 mph 1014.3mb 73f 72f
1:50 5ft 8s 6s 4 7 mph 1014.8mb 73f 72f
12:50 5.5ft 8s 6s 2
mph
1015.3mb 73f 72f
Sex 04/17 11:50 6ft 10s 6s 2 4 mph 1015.6mb 73f 72f
10:50 6ft 10s 6s 2 4 mph 1015.9mb 73f 72f
9:50 6ft 10s 6s 2 7 mph 1016mb 73f 72f
8:50 6.5ft 9s 7s 4 7 mph 1015.6mb 73f 71f
7:50 7ft 8s 7s 7 9 mph 1015.3mb 73f 71f
6:50 7ft 9s 7s 4 7 mph 1015mb 73f 72f
5:50 7ft 10s 7s 7 9 mph 1015.2mb 73f 72f
4:50 6ft 10s 6s 9 13 mph 1015.5mb 73f 73f
3:50 7ft 9s 6s 11 13 mph 1015.6mb 73f 72f
2:50 6.5ft 9s 6s 16 20 mph 1016.3mb 73f 72f
1:50 6.5ft 8s 6s 16 18 mph 1017.2mb 73f 72f
12:50 7ft 7s 6s 16 18 mph 1017.6mb 73f 72f
11:50 8ft 8s 6s 20 22 mph 1017.8mb 72f 72f
10:50 8ft 8s 6s 20 22 mph 1018.3mb 72f 72f
9:50 8ft 8s 6s 18 22 mph 1018.4mb 72f 72f
8:50 8ft 7s 6s 18 22 mph 1018.7mb 72f 71f
7:50 8ft 8s 6s 18 22 mph 1019mb 72f 72f
6:50 8ft 8s 6s 18 22 mph 1018.9mb 72f 71f
5:50 8ft 8s 6s 18 25 mph 1018.6mb 72f 71f
4:50 9ft 8s 6s 20 25 mph 1018.6mb 72f 70f
3:50 8.5ft 8s 6s 22 25 mph 1018.9mb 72f 69f
2:50 8ft 8s 6s 22 29 mph 1019.5mb 72f 70f
1:50 9.5ft 8s 6s 22 29 mph 1020.4mb 72f 69f
12:50 10ft 9s 6s 25 29 mph 1021.2mb 72f 69f
Qui 04/16 11:50 9.5ft 8s 6s 25 31 mph 1021.8mb 72f 68f
10:50 10ft 9s 6s 27 29 mph 1022.3mb 72f 67f
9:50 10ft 8s 6s 25 29 mph 1022.9mb 72f 67f
8:50 10ft 8s 6s 27 31 mph 1022.1mb 72f 67f
7:50 11ft 8s 6s 29 34 mph 1021.4mb 72f 66f
6:50 10.5ft 8s 6s 31 36 mph 1021.2mb 72f 67f
5:50 11ft 8s 6s 29 36 mph 1021.2mb 72f 67f
4:50 10ft 8s 6s 29 34 mph 1021.7mb 72f 67f
3:50 10ft 7s 6s 29 34 mph 1022.1mb 72f 67f
2:50 10ft 7s 6s 27 34 mph 1022.8mb 72f 67f
1:50 10ft 7s 6s 27 34 mph 1022.9mb 72f 69f
12:50 10ft 7s 6s 29 36 mph 1022.7mb 72f 69f
11:50 9ft 8s 6s 27 36 mph 1023.2mb 72f 70f
10:50 9ft 7s 6s 31 36 mph 1022.7mb 72f 70f
9:50 8.5ft 8s 6s 29 36 mph 1022.2mb 72f 70f
8:50 8ft 8s 6s 27 34 mph 1021.9mb 73f 70f
7:50 8ft 9s 6s 29 34 mph 1021.6mb 73f 70f
6:50 8ft 9s 6s 27 31 mph 1021.3mb 73f 69f
5:50 7ft 6s 5s 25 29 mph 1021.1mb 73f 70f
4:50 6.5ft 6s 5s 27 31 mph 1020.4mb 73f 71f
3:50 6ft 6s 5s 25 29 mph 1020.4mb 73f 71f
2:50 5.5ft 5s 5s 25 29 mph 1020.6mb 73f 71f
1:50 5ft 7s 5s 25 29 mph 1021mb 73f 71f
12:50 4.5ft 6s 4s 22 27 mph 1021.4mb 73f 72f
Qua 04/15 11:50 3.5ft 6s 5s 20 25 mph 1021.4mb 73f 72f
10:50 3.5ft 6s 5s 16 18 mph 1021.7mb 73f 73f
9:50 3.5ft 6s 5s 13 16 mph 1021.7mb 73f 73f
8:50 3.5ft 6s 5s 9 11 mph 1021.1mb 72f 71f
7:50 3.5ft 6s 5s 9
mph
1020.3mb 72f 71f
6:50 3.5ft 6s 5s 13
mph
1019.5mb 73f 70f
5:50 3.5ft 7s 5s 13 16 mph 1019.5mb 73f 70f
4:50 3.5ft 6s 5s 16 18 mph 1019.3mb 73f 71f
3:50 3.5ft 6s 5s 16 18 mph 1019.2mb 73f 71f
2:50 3.5ft 6s 5s 7 9 mph 1019.9mb 73f 71f
1:50 3.5ft 6s 5s 16 20 mph 1020.4mb 73f 69f
12:50 4ft 6s 5s 13 16 mph 1020.3mb 73f 73f
11:50 3.5ft 6s 5s 11 13 mph 1020.7mb 73f 73f
10:50 3.5ft 6s 5s 11 13 mph 1020.7mb 73f 73f